sensor_id;sensor_type;location;lat;lon;timestamp;pressure;altitude;pressure_sealevel;temperature;humidity
58658;BME280;44428;45.630;13.786;2023-01-10T00:01:59;100448.94;;;7.55;100.00
58658;BME280;44428;45.630;13.786;2023-01-10T00:04:25;100458.41;;;7.58;100.00
58658;BME280;44428;45.630;13.786;2023-01-10T00:06:51;100463.66;;;7.58;100.00
58658;BME280;44428;45.630;13.786;2023-01-10T00:09:17;100462.00;;;7.57;99.43
58658;BME280;44428;45.630;13.786;2023-01-10T00:11:43;100457.13;;;7.51;100.00
58658;BME280;44428;45.630;13.786;2023-01-10T00:14:27;100466.09;;;7.47;100.00
58658;BME280;44428;45.630;13.786;2023-01-10T00:16:54;100461.69;;;7.47;100.00
58658;BME280;44428;45.630;13.786;2023-01-10T00:19:20;100464.81;;;7.40;100.00
58658;BME280;44428;45.630;13.786;2023-01-10T00:21:46;100476.53;;;7.34;100.00
58658;BME280;44428;45.630;13.786;2023-01-10T00:24:12;100489.78;;;7.32;100.00
58658;BME280;44428;45.630;13.786;2023-01-10T00:26:45;100484.91;;;7.26;100.00
58658;BME280;44428;45.630;13.786;2023-01-10T00:29:25;100494.06;;;7.19;100.00
58658;BME280;44428;45.630;13.786;2023-01-10T00:31:52;100492.19;;;7.21;100.00
58658;BME280;44428;45.630;13.786;2023-01-10T00:34:18;100483.53;;;7.19;100.00
58658;BME280;44428;45.630;13.786;2023-01-10T00:36:44;100488.81;;;7.19;100.00
58658;BME280;44428;45.630;13.786;2023-01-10T00:39:12;100490.50;;;7.20;100.00
58658;BME280;44428;45.630;13.786;2023-01-10T00:41:39;100497.25;;;7.24;100.00
58658;BME280;44428;45.630;13.786;2023-01-10T00:44:23;100497.44;;;7.21;100.00
58658;BME280;44428;45.630;13.786;2023-01-10T00:46:51;100506.28;;;7.20;100.00
58658;BME280;44428;45.630;13.786;2023-01-10T00:49:17;100505.22;;;7.23;100.00
58658;BME280;44428;45.630;13.786;2023-01-10T00:51:43;100507.97;;;7.21;100.00
58658;BME280;44428;45.630;13.786;2023-01-10T00:54:10;100513.22;;;7.21;100.00
58658;BME280;44428;45.630;13.786;2023-01-10T00:56:36;100525.41;;;7.22;100.00
58658;BME280;44428;45.630;13.786;2023-01-10T00:59:02;100519.41;;;7.20;100.00
58658;BME280;44428;45.630;13.786;2023-01-10T01:01:28;100533.28;;;7.22;100.00
58658;BME280;44428;45.630;13.786;2023-01-10T01:03:54;100533.66;;;7.16;100.00
58658;BME280;44428;45.630;13.786;2023-01-10T01:06:19;100543.06;;;7.20;100.00
58658;BME280;44428;45.630;13.786;2023-01-10T01:08:45;100539.69;;;7.18;100.00
58658;BME280;44428;45.630;13.786;2023-01-10T01:11:11;100545.69;;;7.20;100.00
58658;BME280;44428;45.630;13.786;2023-01-10T01:13:36;100548.31;;;7.20;100.00
58658;BME280;44428;45.630;13.786;2023-01-10T01:16:02;100569.34;;;7.20;100.00
58658;BME280;44428;45.630;13.786;2023-01-10T01:18:28;100569.34;;;7.20;100.00
58658;BME280;44428;45.630;13.786;2023-01-10T01:20:55;100585.13;;;7.20;100.00
58658;BME280;44428;45.630;13.786;2023-01-10T01:23:22;100579.69;;;7.23;100.00
58658;BME280;44428;45.630;13.786;2023-01-10T01:25:55;100585.28;;;7.17;100.00
58658;BME280;44428;45.630;13.786;2023-01-10T01:28:22;100588.66;;;7.19;100.00
58658;BME280;44428;45.630;13.786;2023-01-10T01:30:48;100591.88;;;7.24;100.00
58658;BME280;44428;45.630;13.786;2023-01-10T01:33:15;100591.03;;;7.24;100.00
58658;BME280;44428;45.630;13.786;2023-01-10T01:35:42;100597.31;;;7.21;100.00
58658;BME280;44428;45.630;13.786;2023-01-10T01:38:08;100595.44;;;7.23;100.00
58658;BME280;44428;45.630;13.786;2023-01-10T01:40:34;100603.72;;;7.31;100.00
58658;BME280;44428;45.630;13.786;2023-01-10T01:43:01;100593.03;;;7.34;100.00
58658;BME280;44428;45.630;13.786;2023-01-10T01:45:37;100602.63;;;7.36;100.00
58658;BME280;44428;45.630;13.786;2023-01-10T01:48:26;100608.59;;;7.38;100.00
58658;BME280;44428;45.630;13.786;2023-01-10T01:53:25;100600.00;;;7.36;100.00
58658;BME280;44428;45.630;13.786;2023-01-10T01:55:56;100598.28;;;7.34;100.00
58658;BME280;44428;45.630;13.786;2023-01-10T01:58:25;100588.72;;;7.33;100.00
58658;BME280;44428;45.630;13.786;2023-01-10T02:00:54;100609.72;;;7.33;100.00
58658;BME280;44428;45.630;13.786;2023-01-10T02:03:20;100606.94;;;7.37;100.00
58658;BME280;44428;45.630;13.786;2023-01-10T02:05:46;100612.00;;;7.40;100.00
58658;BME280;44428;45.630;13.786;2023-01-10T02:08:12;100617.25;;;7.40;100.00
58658;BME280;44428;45.630;13.786;2023-01-10T02:10:51;100618.94;;;7.41;100.00
58658;BME280;44428;45.630;13.786;2023-01-10T02:13:20;100615.41;;;7.42;100.00
58658;BME280;44428;45.630;13.786;2023-01-10T02:15:47;100622.53;;;7.40;100.00
58658;BME280;44428;45.630;13.786;2023-01-10T02:18:13;100632.84;;;7.43;100.00
58658;BME280;44428;45.630;13.786;2023-01-10T02:21:09;100621.69;;;7.39;100.00
58658;BME280;44428;45.630;13.786;2023-01-10T02:26:33;100633.03;;;7.40;100.00
58658;BME280;44428;45.630;13.786;2023-01-10T02:42:42;100642.41;;;7.29;100.00
58658;BME280;44428;45.630;13.786;2023-01-10T02:45:15;100644.25;;;7.27;100.00
58658;BME280;44428;45.630;13.786;2023-01-10T02:47:42;100644.44;;;7.24;100.00
58658;BME280;44428;45.630;13.786;2023-01-10T02:53:26;100648.84;;;7.24;100.00
58658;BME280;44428;45.630;13.786;2023-01-10T03:04:44;100669.03;;;7.23;100.00
58658;BME280;44428;45.630;13.786;2023-01-10T03:09:44;100667.50;;;7.19;100.00
58658;BME280;44428;45.630;13.786;2023-01-10T03:12:24;100682.41;;;7.19;100.00
58658;BME280;44428;45.630;13.786;2023-01-10T03:14:54;100680.97;;;7.13;100.00
58658;BME280;44428;45.630;13.786;2023-01-10T03:17:22;100686.84;;;7.18;100.00
58658;BME280;44428;45.630;13.786;2023-01-10T03:19:52;100677.00;;;7.22;100.00
58658;BME280;44428;45.630;13.786;2023-01-10T03:22:19;100693.59;;;7.22;100.00
58658;BME280;44428;45.630;13.786;2023-01-10T03:24:48;100693.78;;;7.19;100.00
58658;BME280;44428;45.630;13.786;2023-01-10T03:27:40;100696.31;;;7.21;100.00
58658;BME280;44428;45.630;13.786;2023-01-10T03:32:45;100706.84;;;7.21;100.00
58658;BME280;44428;45.630;13.786;2023-01-10T03:35:12;100716.34;;;7.23;100.00
58658;BME280;44428;45.630;13.786;2023-01-10T03:40:29;100721.41;;;7.26;100.00
58658;BME280;44428;45.630;13.786;2023-01-10T03:43:02;100721.59;;;7.23;100.00
58658;BME280;44428;45.630;13.786;2023-01-10T03:45:57;100722.25;;;7.27;100.00
58658;BME280;44428;45.630;13.786;2023-01-10T03:48:26;100738.88;;;7.27;100.00
58658;BME280;44428;45.630;13.786;2023-01-10T03:50:55;100736.16;;;7.29;100.00
58658;BME280;44428;45.630;13.786;2023-01-10T03:53:22;100735.31;;;7.28;100.00
58658;BME280;44428;45.630;13.786;2023-01-10T03:55:48;100742.28;;;7.29;100.00
58658;BME280;44428;45.630;13.786;2023-01-10T03:58:14;100743.00;;;7.31;100.00
58658;BME280;44428;45.630;13.786;2023-01-10T04:00:41;100752.44;;;7.36;100.00
58658;BME280;44428;45.630;13.786;2023-01-10T04:03:07;100749.88;;;7.34;100.00
58658;BME280;44428;45.630;13.786;2023-01-10T04:05:34;100757.69;;;7.36;100.00
58658;BME280;44428;45.630;13.786;2023-01-10T04:08:00;100763.69;;;7.38;100.00
58658;BME280;44428;45.630;13.786;2023-01-10T04:10:26;100762.97;;;7.36;100.00
58658;BME280;44428;45.630;13.786;2023-01-10T04:12:53;100762.97;;;7.36;100.00
58658;BME280;44428;45.630;13.786;2023-01-10T04:15:19;100767.44;;;7.33;100.00
58658;BME280;44428;45.630;13.786;2023-01-10T04:17:47;100776.84;;;7.38;100.00
58658;BME280;44428;45.630;13.786;2023-01-10T04:20:13;100777.00;;;7.34;100.00
58658;BME280;44428;45.630;13.786;2023-01-10T04:22:38;100785.66;;;7.37;100.00
58658;BME280;44428;45.630;13.786;2023-01-10T04:25:04;100790.94;;;7.37;100.00
58658;BME280;44428;45.630;13.786;2023-01-10T04:27:30;100785.50;;;7.40;100.00
58658;BME280;44428;45.630;13.786;2023-01-10T04:29:56;100795.91;;;7.41;100.00
58658;BME280;44428;45.630;13.786;2023-01-10T04:32:22;100792.63;;;7.38;100.00
58658;BME280;44428;45.630;13.786;2023-01-10T04:34:47;100808.03;;;7.44;100.00
58658;BME280;44428;45.630;13.786;2023-01-10T04:37:13;100803.63;;;7.44;100.00
58658;BME280;44428;45.630;13.786;2023-01-10T04:39:39;100808.22;;;7.41;100.00
58658;BME280;44428;45.630;13.786;2023-01-10T04:42:05;100811.63;;;7.43;100.00
58658;BME280;44428;45.630;13.786;2023-01-10T04:44:31;100820.44;;;7.42;100.00
58658;BME280;44428;45.630;13.786;2023-01-10T04:46:56;100813.31;;;7.44;100.00
58658;BME280;44428;45.630;13.786;2023-01-10T04:49:22;100823.81;;;7.44;100.00
58658;BME280;44428;45.630;13.786;2023-01-10T04:51:48;100822.13;;;7.43;100.00
58658;BME280;44428;45.630;13.786;2023-01-10T04:54:14;100836.72;;;7.48;100.00
58658;BME280;44428;45.630;13.786;2023-01-10T04:56:39;100834.16;;;7.47;100.00
58658;BME280;44428;45.630;13.786;2023-01-10T04:59:05;100842.81;;;7.49;100.00
58658;BME280;44428;45.630;13.786;2023-01-10T05:01:31;100844.69;;;7.47;100.00
58658;BME280;44428;45.630;13.786;2023-01-10T05:03:57;100841.97;;;7.48;100.00
58658;BME280;44428;45.630;13.786;2023-01-10T05:06:23;100848.00;;;7.50;100.00
58658;BME280;44428;45.630;13.786;2023-01-10T05:08:49;100860.28;;;7.50;100.00
58658;BME280;44428;45.630;13.786;2023-01-10T05:11:15;100856.75;;;7.51;100.00
58658;BME280;44428;45.630;13.786;2023-01-10T05:13:41;100874.22;;;7.52;100.00
58658;BME280;44428;45.630;13.786;2023-01-10T05:16:07;100878.63;;;7.51;100.00
58658;BME280;44428;45.630;13.786;2023-01-10T05:18:32;100874.38;;;7.49;100.00
58658;BME280;44428;45.630;13.786;2023-01-10T05:21:12;100877.94;;;7.48;100.00
58658;BME280;44428;45.630;13.786;2023-01-10T05:23:38;100883.38;;;7.45;100.00
58658;BME280;44428;45.630;13.786;2023-01-10T05:26:08;100884.38;;;7.42;100.00
58658;BME280;44428;45.630;13.786;2023-01-10T05:28:34;100880.81;;;7.43;100.00
58658;BME280;44428;45.630;13.786;2023-01-10T05:31:00;100873.03;;;7.42;100.00
58658;BME280;44428;45.630;13.786;2023-01-10T05:33:26;100886.25;;;7.40;100.00
58658;BME280;44428;45.630;13.786;2023-01-10T05:35:52;100894.22;;;7.39;100.00
58658;BME280;44428;45.630;13.786;2023-01-10T05:38:18;100896.06;;;7.37;100.00
58658;BME280;44428;45.630;13.786;2023-01-10T05:40:43;100901.66;;;7.30;100.00
58658;BME280;44428;45.630;13.786;2023-01-10T05:43:09;100915.91;;;7.26;100.00
58658;BME280;44428;45.630;13.786;2023-01-10T05:45:36;100917.59;;;7.27;100.00
58658;BME280;44428;45.630;13.786;2023-01-10T05:48:02;100910.97;;;7.20;100.00
58658;BME280;44428;45.630;13.786;2023-01-10T05:50:28;100916.22;;;7.20;100.00
58658;BME280;44428;45.630;13.786;2023-01-10T05:52:58;100925.19;;;7.16;100.00
58658;BME280;44428;45.630;13.786;2023-01-10T05:55:28;100925.19;;;7.16;100.00
58658;BME280;44428;45.630;13.786;2023-01-10T05:57:53;100924.34;;;7.16;100.00
58658;BME280;44428;45.630;13.786;2023-01-10T06:00:19;100935.69;;;7.16;100.00
58658;BME280;44428;45.630;13.786;2023-01-10T06:02:45;100935.53;;;7.19;100.00
58658;BME280;44428;45.630;13.786;2023-01-10T06:05:11;100944.38;;;7.18;100.00
58658;BME280;44428;45.630;13.786;2023-01-10T06:07:37;100946.22;;;7.16;100.00
58658;BME280;44428;45.630;13.786;2023-01-10T06:10:02;100951.63;;;7.13;100.00
58658;BME280;44428;45.630;13.786;2023-01-10T06:12:28;100953.50;;;7.11;100.00
58658;BME280;44428;45.630;13.786;2023-01-10T06:14:54;100956.72;;;7.16;100.00
58658;BME280;44428;45.630;13.786;2023-01-10T06:17:20;100956.72;;;7.16;100.00
58658;BME280;44428;45.630;13.786;2023-01-10T06:19:45;100960.44;;;7.12;100.00
58658;BME280;44428;45.630;13.786;2023-01-10T06:22:11;100955.50;;;7.06;100.00
58658;BME280;44428;45.630;13.786;2023-01-10T06:24:37;100966.34;;;7.00;100.00
58658;BME280;44428;45.630;13.786;2023-01-10T06:27:02;100973.44;;;6.98;100.00
58658;BME280;44428;45.630;13.786;2023-01-10T06:29:28;100983.16;;;6.96;100.00
58658;BME280;44428;45.630;13.786;2023-01-10T06:31:54;100994.78;;;6.92;100.00
58658;BME280;44428;45.630;13.786;2023-01-10T06:34:20;100988.03;;;6.86;100.00
58658;BME280;44428;45.630;13.786;2023-01-10T06:36:45;100995.91;;;6.86;100.00
58658;BME280;44428;45.630;13.786;2023-01-10T06:39:11;100996.63;;;6.89;100.00
58658;BME280;44428;45.630;13.786;2023-01-10T06:41:37;101012.53;;;6.86;100.00
58658;BME280;44428;45.630;13.786;2023-01-10T06:44:02;101007.44;;;6.83;100.00
58658;BME280;44428;45.630;13.786;2023-01-10T06:46:28;101016.56;;;6.76;100.00
58658;BME280;44428;45.630;13.786;2023-01-10T06:48:54;101018.19;;;6.79;100.00
58658;BME280;44428;45.630;13.786;2023-01-10T06:51:19;101009.47;;;6.78;100.00
58658;BME280;44428;45.630;13.786;2023-01-10T06:53:45;101012.84;;;6.80;100.00
58658;BME280;44428;45.630;13.786;2023-01-10T06:56:11;101030.16;;;6.84;100.00
58658;BME280;44428;45.630;13.786;2023-01-10T06:58:37;101024.75;;;6.87;100.00
58658;BME280;44428;45.630;13.786;2023-01-10T07:01:06;101035.41;;;6.84;100.00
58658;BME280;44428;45.630;13.786;2023-01-10T07:03:37;101040.50;;;6.87;100.00
58658;BME280;44428;45.630;13.786;2023-01-10T07:06:05;101045.63;;;6.91;100.00
58658;BME280;44428;45.630;13.786;2023-01-10T07:08:39;101054.56;;;6.86;100.00
58658;BME280;44428;45.630;13.786;2023-01-10T07:11:05;101061.84;;;6.81;100.00
58658;BME280;44428;45.630;13.786;2023-01-10T07:13:31;101055.16;;;6.74;100.00
58658;BME280;44428;45.630;13.786;2023-01-10T07:16:09;101063.81;;;6.76;100.00
58658;BME280;44428;45.630;13.786;2023-01-10T07:18:36;101065.66;;;6.74;100.00
58658;BME280;44428;45.630;13.786;2023-01-10T07:21:02;101072.63;;;6.75;100.00
58658;BME280;44428;45.630;13.786;2023-01-10T07:23:28;101081.28;;;6.77;100.00
58658;BME280;44428;45.630;13.786;2023-01-10T07:26:01;101079.59;;;6.76;100.00
58658;BME280;44428;45.630;13.786;2023-01-10T07:28:27;101086.53;;;6.77;100.00
58658;BME280;44428;45.630;13.786;2023-01-10T07:30:53;101099.34;;;6.83;100.00
58658;BME280;44428;45.630;13.786;2023-01-10T07:33:19;101103.72;;;6.84;100.00
58658;BME280;44428;45.630;13.786;2023-01-10T07:35:44;101102.63;;;6.88;100.00
58658;BME280;44428;45.630;13.786;2023-01-10T07:38:10;101099.00;;;6.91;100.00
58658;BME280;44428;45.630;13.786;2023-01-10T07:40:36;101111.91;;;6.96;100.00
58658;BME280;44428;45.630;13.786;2023-01-10T07:43:02;101115.16;;;7.01;100.00
58658;BME280;44428;45.630;13.786;2023-01-10T07:45:29;101123.97;;;7.00;100.00
58658;BME280;44428;45.630;13.786;2023-01-10T07:48:00;101125.97;;;6.95;100.00
58658;BME280;44428;45.630;13.786;2023-01-10T07:50:28;101125.81;;;6.98;100.00
58658;BME280;44428;45.630;13.786;2023-01-10T07:52:54;101125.22;;;7.10;100.00
58658;BME280;44428;45.630;13.786;2023-01-10T07:55:21;101121.81;;;7.08;100.00
58658;BME280;44428;45.630;13.786;2023-01-10T07:57:48;101130.03;;;7.19;100.00
58658;BME280;44428;45.630;13.786;2023-01-10T08:00:15;101128.31;;;7.18;100.00
58658;BME280;44428;45.630;13.786;2023-01-10T08:02:40;101137.00;;;7.20;100.00
58658;BME280;44428;45.630;13.786;2023-01-10T08:05:06;101139.53;;;7.22;100.00
58658;BME280;44428;45.630;13.786;2023-01-10T08:07:32;101150.91;;;7.22;100.00
58658;BME280;44428;45.630;13.786;2023-01-10T08:09:58;101159.56;;;7.24;100.00
58658;BME280;44428;45.630;13.786;2023-01-10T08:12:24;101162.81;;;7.29;100.00
58658;BME280;44428;45.630;13.786;2023-01-10T08:14:50;101167.63;;;7.39;100.00
58658;BME280;44428;45.630;13.786;2023-01-10T08:17:16;101153.25;;;7.46;100.00
58658;BME280;44428;45.630;13.786;2023-01-10T08:19:42;101155.66;;;7.50;100.00
58658;BME280;44428;45.630;13.786;2023-01-10T08:22:08;101151.25;;;7.51;100.00
58658;BME280;44428;45.630;13.786;2023-01-10T08:24:34;101159.41;;;7.62;100.00
58658;BME280;44428;45.630;13.786;2023-01-10T08:27:00;101176.44;;;7.72;100.00
58658;BME280;44428;45.630;13.786;2023-01-10T08:29:26;101179.97;;;7.71;100.00
58658;BME280;44428;45.630;13.786;2023-01-10T08:31:51;101175.66;;;7.70;100.00
58658;BME280;44428;45.630;13.786;2023-01-10T08:34:17;101172.09;;;7.71;100.00
58658;BME280;44428;45.630;13.786;2023-01-10T08:36:43;101184.03;;;7.78;100.00
58658;BME280;44428;45.630;13.786;2023-01-10T08:39:09;101186.66;;;7.78;100.00
58658;BME280;44428;45.630;13.786;2023-01-10T08:41:34;101189.88;;;7.84;100.00
58658;BME280;44428;45.630;13.786;2023-01-10T08:44:00;101196.72;;;7.88;100.00
58658;BME280;44428;45.630;13.786;2023-01-10T08:46:26;101203.50;;;7.92;100.00
58658;BME280;44428;45.630;13.786;2023-01-10T08:48:52;101206.59;;;8.00;100.00
58658;BME280;44428;45.630;13.786;2023-01-10T08:51:18;101214.25;;;8.04;100.00
58658;BME280;44428;45.630;13.786;2023-01-10T08:53:43;101221.44;;;8.18;100.00
58658;BME280;44428;45.630;13.786;2023-01-10T08:56:09;101222.66;;;8.29;100.00
58658;BME280;44428;45.630;13.786;2023-01-10T08:58:35;101228.53;;;8.34;100.00
58658;BME280;44428;45.630;13.786;2023-01-10T09:01:06;101240.47;;;8.41;100.00
58658;BME280;44428;45.630;13.786;2023-01-10T09:03:32;101237.50;;;8.47;100.00
58658;BME280;44428;45.630;13.786;2023-01-10T09:05:59;101244.16;;;8.54;100.00
58658;BME280;44428;45.630;13.786;2023-01-10T09:08:24;101245.69;;;8.58;99.49
58658;BME280;44428;45.630;13.786;2023-01-10T09:10:50;101249.47;;;8.70;99.23
58658;BME280;44428;45.630;13.786;2023-01-10T09:13:16;101256.97;;;8.78;97.87
58658;BME280;44428;45.630;13.786;2023-01-10T09:15:42;101258.00;;;8.91;96.20
58658;BME280;44428;45.630;13.786;2023-01-10T09:18:11;101258.94;;;9.06;95.94
58658;BME280;44428;45.630;13.786;2023-01-10T09:20:38;101265.25;;;9.81;92.38
58658;BME280;44428;45.630;13.786;2023-01-10T09:23:09;101268.00;;;11.10;86.02
58658;BME280;44428;45.630;13.786;2023-01-10T09:25:35;101276.31;;;11.45;83.57
58658;BME280;44428;45.630;13.786;2023-01-10T09:28:02;101285.66;;;14.03;74.44
58658;BME280;44428;45.630;13.786;2023-01-10T09:30:29;101278.03;;;15.12;66.38
58658;BME280;44428;45.630;13.786;2023-01-10T09:32:56;101282.22;;;13.90;67.47
58658;BME280;44428;45.630;13.786;2023-01-10T09:35:23;101299.31;;;13.01;70.43
58658;BME280;44428;45.630;13.786;2023-01-10T09:37:49;101303.38;;;12.43;72.40
58658;BME280;44428;45.630;13.786;2023-01-10T09:40:16;101303.28;;;11.91;74.38
58658;BME280;44428;45.630;13.786;2023-01-10T09:55:39;101305.44;;;22.36;41.78
58658;BME280;44428;45.630;13.786;2023-01-10T09:58:11;101304.19;;;23.19;38.72
58658;BME280;44428;45.630;13.786;2023-01-10T10:00:43;101302.19;;;23.75;38.58
58658;BME280;44428;45.630;13.786;2023-01-10T10:05:42;101306.13;;;24.93;35.29
58658;BME280;44428;45.630;13.786;2023-01-10T10:08:13;101306.50;;;25.05;35.64
58658;BME280;44428;45.630;13.786;2023-01-10T10:10:53;101306.16;;;25.44;34.64
58658;BME280;44428;45.630;13.786;2023-01-10T10:21:36;101305.59;;;27.04;30.85
58658;BME280;44428;45.630;13.786;2023-01-10T10:37:22;101309.22;;;27.79;29.27
58658;BME280;44428;45.630;13.786;2023-01-10T10:39:53;101310.00;;;27.73;29.05
58658;BME280;44428;45.630;13.786;2023-01-10T10:42:20;101308.81;;;28.22;28.39
58658;BME280;44428;45.630;13.786;2023-01-10T10:44:58;101309.47;;;28.11;27.43
58658;BME280;44428;45.630;13.786;2023-01-10T10:47:27;101307.16;;;28.21;27.72
58658;BME280;44428;45.630;13.786;2023-01-10T10:53:08;101312.56;;;28.61;27.45
58658;BME280;44428;45.630;13.786;2023-01-10T10:55:36;101320.09;;;28.33;27.42
58658;BME280;44428;45.630;13.786;2023-01-10T10:58:03;101325.13;;;28.49;28.06
58658;BME280;44428;45.630;13.786;2023-01-10T11:00:30;101331.38;;;28.56;26.92
58658;BME280;44428;45.630;13.786;2023-01-10T11:05:45;101325.72;;;28.64;26.43
58658;BME280;44428;45.630;13.786;2023-01-10T11:08:12;101335.94;;;28.82;26.66
58658;BME280;44428;45.630;13.786;2023-01-10T11:10:47;101327.22;;;28.47;26.76
58658;BME280;44428;45.630;13.786;2023-01-10T11:15:59;101329.03;;;28.93;26.78
58658;BME280;44428;45.630;13.786;2023-01-10T11:18:28;101330.53;;;28.62;26.71
58658;BME280;44428;45.630;13.786;2023-01-10T11:21:07;101341.00;;;28.39;27.98
58658;BME280;44428;45.630;13.786;2023-01-10T11:26:08;101346.38;;;28.92;27.51
58658;BME280;44428;45.630;13.786;2023-01-10T11:28:35;101340.38;;;28.30;27.18
58658;BME280;44428;45.630;13.786;2023-01-10T11:31:02;101342.25;;;28.16;28.07
58658;BME280;44428;45.630;13.786;2023-01-10T11:33:31;101331.81;;;28.26;28.14
58658;BME280;44428;45.630;13.786;2023-01-10T11:36:03;101337.22;;;28.20;27.74
58658;BME280;44428;45.630;13.786;2023-01-10T11:38:30;101344.16;;;28.36;27.86
58658;BME280;44428;45.630;13.786;2023-01-10T11:40:58;101339.78;;;28.48;26.82
58658;BME280;44428;45.630;13.786;2023-01-10T11:45:54;101339.66;;;27.68;27.84
58658;BME280;44428;45.630;13.786;2023-01-10T11:48:23;101335.97;;;27.82;28.27
58658;BME280;44428;45.630;13.786;2023-01-10T11:50:53;101339.91;;;27.86;27.78
58658;BME280;44428;45.630;13.786;2023-01-10T11:53:39;101339.25;;;27.71;27.82
58658;BME280;44428;45.630;13.786;2023-01-10T11:56:09;101338.16;;;27.11;28.55
58658;BME280;44428;45.630;13.786;2023-01-10T11:58:36;101344.34;;;26.91;29.29
58658;BME280;44428;45.630;13.786;2023-01-10T12:01:03;101346.59;;;27.23;28.60
58658;BME280;44428;45.630;13.786;2023-01-10T12:03:34;101339.09;;;27.18;28.13
58658;BME280;44428;45.630;13.786;2023-01-10T12:06:12;101343.88;;;27.16;28.20
58658;BME280;44428;45.630;13.786;2023-01-10T12:08:40;101353.19;;;27.07;28.96
58658;BME280;44428;45.630;13.786;2023-01-10T12:18:42;101355.47;;;27.45;27.92
58658;BME280;44428;45.630;13.786;2023-01-10T12:21:11;101347.50;;;27.30;27.48
58658;BME280;44428;45.630;13.786;2023-01-10T12:23:39;101356.13;;;27.12;26.69
58658;BME280;44428;45.630;13.786;2023-01-10T12:26:09;101358.94;;;26.90;27.96
58658;BME280;44428;45.630;13.786;2023-01-10T12:28:48;101364.53;;;27.17;28.43
58658;BME280;44428;45.630;13.786;2023-01-10T12:31:15;101363.13;;;26.37;29.54
58658;BME280;44428;45.630;13.786;2023-01-10T12:33:50;101378.31;;;26.10;29.26
58658;BME280;44428;45.630;13.786;2023-01-10T12:39:31;101365.03;;;26.15;29.36
58658;BME280;44428;45.630;13.786;2023-01-10T12:50:37;101378.53;;;26.36;28.37
58658;BME280;44428;45.630;13.786;2023-01-10T12:55:36;101383.22;;;26.21;28.94
58658;BME280;44428;45.630;13.786;2023-01-10T12:58:06;101382.81;;;26.02;29.19
58658;BME280;44428;45.630;13.786;2023-01-10T13:00:44;101383.78;;;25.80;29.48
58658;BME280;44428;45.630;13.786;2023-01-10T13:03:13;101384.94;;;25.71;30.16
58658;BME280;44428;45.630;13.786;2023-01-10T13:05:40;101391.16;;;25.35;30.73
58658;BME280;44428;45.630;13.786;2023-01-10T13:08:11;101383.66;;;25.67;30.43
58658;BME280;44428;45.630;13.786;2023-01-10T13:10:43;101382.19;;;25.49;31.04
58658;BME280;44428;45.630;13.786;2023-01-10T13:18:34;101399.84;;;25.30;30.59
58658;BME280;44428;45.630;13.786;2023-01-10T13:21:09;101402.38;;;25.32;28.72
58658;BME280;44428;45.630;13.786;2023-01-10T13:23:49;101406.31;;;25.15;30.41
58658;BME280;44428;45.630;13.786;2023-01-10T13:26:16;101406.03;;;24.72;29.70
58658;BME280;44428;45.630;13.786;2023-01-10T13:28:57;101417.00;;;24.55;31.18
58658;BME280;44428;45.630;13.786;2023-01-10T13:31:32;101429.59;;;24.40;31.67
58658;BME280;44428;45.630;13.786;2023-01-10T13:34:03;101433.03;;;24.34;31.15
58658;BME280;44428;45.630;13.786;2023-01-10T13:36:55;101422.25;;;23.80;32.63
58658;BME280;44428;45.630;13.786;2023-01-10T13:39:43;101430.03;;;23.74;33.84
58658;BME280;44428;45.630;13.786;2023-01-10T13:42:22;101431.97;;;23.89;33.43
58658;BME280;44428;45.630;13.786;2023-01-10T14:03:47;101452.81;;;22.18;37.36
58658;BME280;44428;45.630;13.786;2023-01-10T14:09:01;101458.97;;;22.02;37.51
58658;BME280;44428;45.630;13.786;2023-01-10T14:11:55;101462.16;;;21.98;37.98
58658;BME280;44428;45.630;13.786;2023-01-10T14:14:32;101475.81;;;21.62;38.72
58658;BME280;44428;45.630;13.786;2023-01-10T14:19:45;101479.41;;;21.36;39.83
58658;BME280;44428;45.630;13.786;2023-01-10T14:22:29;101478.72;;;20.90;40.40
58658;BME280;44428;45.630;13.786;2023-01-10T14:25:00;101473.84;;;20.68;40.57
58658;BME280;44428;45.630;13.786;2023-01-10T14:27:42;101482.00;;;20.58;40.48
58658;BME280;44428;45.630;13.786;2023-01-10T14:30:16;101480.63;;;20.08;40.62
58658;BME280;44428;45.630;13.786;2023-01-10T14:32:44;101482.63;;;19.79;41.31
58658;BME280;44428;45.630;13.786;2023-01-10T14:35:17;101481.59;;;19.52;41.88
58658;BME280;44428;45.630;13.786;2023-01-10T14:37:57;101478.69;;;19.36;42.03
58658;BME280;44428;45.630;13.786;2023-01-10T14:43:06;101492.66;;;18.73;42.71
58658;BME280;44428;45.630;13.786;2023-01-10T14:45:50;101492.72;;;18.23;43.60
58658;BME280;44428;45.630;13.786;2023-01-10T14:48:28;101496.56;;;17.90;45.67
58658;BME280;44428;45.630;13.786;2023-01-10T14:53:36;101502.97;;;17.16;48.23
58658;BME280;44428;45.630;13.786;2023-01-10T14:56:02;101497.75;;;16.93;49.35
58658;BME280;44428;45.630;13.786;2023-01-10T14:58:28;101503.94;;;16.62;51.02
58658;BME280;44428;45.630;13.786;2023-01-10T15:00:54;101507.34;;;16.20;52.94
58658;BME280;44428;45.630;13.786;2023-01-10T15:03:23;101515.41;;;15.75;54.58
58658;BME280;44428;45.630;13.786;2023-01-10T15:05:52;101528.31;;;15.35;56.31
58658;BME280;44428;45.630;13.786;2023-01-10T15:08:27;101521.69;;;15.05;57.52
58658;BME280;44428;45.630;13.786;2023-01-10T15:10:57;101534.31;;;14.55;58.83
58658;BME280;44428;45.630;13.786;2023-01-10T15:13:26;101531.22;;;13.88;61.39
58658;BME280;44428;45.630;13.786;2023-01-10T15:15:52;101536.25;;;13.28;63.02